Hauptseite
METAR-TAF:

METAR-TAF

Flughäfen :

Bern, Schweiz

Flughafen Bern-Belp

Breite: 46-55N, Länge: 007-30E, Höhe: 505 m

Beobachtung

Neuester Wetterbericht von vor 36 Minuten, um 23:20 UTC
Wind 2 kt aus unterschiedlichen Richtungen
Temperatur 2°C
Luftfeuchtigkeit 100%
Luftdruck 1024 hPa
Sichtweite 10 km oder mehr
Geschlossene Wolkendecke in der Höhe von 4000 ft

METAR: LSZB 192320Z AUTO VRB02KT 9999 OVC040 02/02 Q1024

Zeit: 00:56 (23:56 UTC)

Prognose

Neuester Wetterbericht von vor 9 Stunden und 31 Minuten, um 14:25 UTC
Gültige Prognose vom 19 um 15 UTC bis 19 um 24 UTC
Wind 8 kt aus West/Nordwest
Sichtweite 10 km oder mehr
Aufgelockert bewölkt in der Höhe von 2000 ft
Durchbrochene Bewölkung in der Höhe von 5000 ft

TAF: LSZB 191425Z 1915/1924 30008KT 9999 SCT020 BKN050

Wetterbeobachtungen und Prognosen von mehr als 4000 Flughäfen (METAR und TAF Bericht).

Die verfügbaren Stationen werden durch gelbe und rote Markierungen auf der Karte dargestellt.

Führen Sie die Maus auf sie, um den Namen der Station zu sehen.

Darauf klicken, um die Beobachtung von Wetterbeobachtungen und Prognosen zu sehen.

Um die Karte zu ändern : klicken Sie auf den grünen Tasten mit einem schwarzen Kreuz Zum Vergrößern, auf den grünen Button mit einem Gedankenstrich zu verkleinern, oder auf die grünen Pfeile für benachbarte Karten.


METAR-TAF: